Time;durP1;ratioP1;P1;durP2;ratioP2;P2;SDS_P1;SDS_P2;PMS_P1;PMS_P2;Temp;Humidity;BMP_temperature;BMP_pressure;BME280_temperature;BME280_humidity;BME280_pressure;Samples;Min_cycle;Max_cycle;Signal;HPM_P1;HPM_P2
2022/03/10 00:06:38;;;;;;;23.8;9.3;;;;;;;;;;;;;-83
2022/03/10 00:07:17;;;;;;;;;;;;;;;3.83;62.0752;102422.1;;;;-82
2022/03/10 00:12:02;;;;;;;;;;;;;;;3.82;62.12891;102422.7;;;;-83
2022/03/10 00:17:05;;;;;;;;;;;;;;;3.8;62.22461;102418.8;;;;-81
2022/03/10 00:21:51;;;;;;;;;;;;;;;3.79;62.21191;102418.6;;;;-82
2022/03/10 00:26:57;;;;;;;;;;;;;;;3.81;62.24805;102413.2;;;;-82
2022/03/10 00:31:55;;;;;;;;;;;;;;;3.8;61.88477;102413.5;;;;-82
2022/03/10 00:36:30;;;;;;;27;10.1;;;;;;;;;;;;;-82
2022/03/10 00:37:15;;;;;;;;;;;;;;;3.78;61.86035;102408.8;;;;-82
2022/03/10 00:42:06;;;;;;;;;;;;;;;3.79;61.88379;102403.9;;;;-82
2022/03/10 00:50:25;;;;;;;;;;;;;;;3.81;61.7002;102401.5;;;;-82
2022/03/10 00:55:26;;;;;;;;;;;;;;;3.82;61.52637;102404.9;;;;-81
2022/03/10 01:00:39;;;;;;;;;;;;;;;3.82;61.66992;102406.1;;;;-82
2022/03/10 01:05:25;;;;;;;;;;;;;;;3.86;61.45605;102401.4;;;;-81
2022/03/10 01:06:25;;;;;;;23;9.6;;;;;;;;;;;;;-82
2022/03/10 01:10:29;;;;;;;;;;;;;;;3.91;61.30957;102403.3;;;;-80
2022/03/10 01:15:26;;;;;;;;;;;;;;;3.9;61.16699;102398.8;;;;-80
2022/03/10 01:20:25;;;;;;;;;;;;;;;3.96;61.26074;102406.4;;;;-80
2022/03/10 01:25:25;;;;;;;;;;;;;;;4;61.34375;102397.9;;;;-81
2022/03/10 01:30:21;;;;;;;;;;;;;;;4.01;61.16992;102395.3;;;;-80
2022/03/10 01:35:27;;;;;;;;;;;;;;;3.97;60.97852;102389.4;;;;-82
2022/03/10 01:36:24;;;;;;;27.4;9.7;;;;;;;;;;;;;-82
2022/03/10 01:40:31;;;;;;;;;;;;;;;3.95;61.3916;102387.7;;;;-81
2022/03/10 01:45:24;;;;;;;;;;;;;;;3.92;61.47461;102387.5;;;;-81
2022/03/10 01:50:23;;;;;;;;;;;;;;;3.88;61.2832;102390.6;;;;-82
2022/03/10 01:55:29;;;;;;;;;;;;;;;3.88;61.66699;102396.9;;;;-82
2022/03/10 02:00:27;;;;;;;;;;;;;;;3.82;61.41797;102399.7;;;;-81
2022/03/10 02:05:25;;;;;;;;;;;;;;;3.79;61.55566;102403;;;;-82
2022/03/10 02:06:33;;;;;;;25;9.7;;;;;;;;;;;;;-80
2022/03/10 02:10:24;;;;;;;;;;;;;;;3.77;61.35449;102407.4;;;;-81
2022/03/10 02:20:25;;;;;;;;;;;;;;;3.58;61.72266;102402.9;;;;-81
2022/03/10 02:25:35;;;;;;;;;;;;;;;3.52;62.18555;102405;;;;-82
2022/03/10 02:30:24;;;;;;;;;;;;;;;3.47;61.89258;102400.1;;;;-80
2022/03/10 02:35:30;;;;;;;;;;;;;;;3.43;62.24805;102401.4;;;;-81
2022/03/10 02:36:24;;;;;;;23.9;10.1;;;;;;;;;;;;;-81
2022/03/10 02:40:25;;;;;;;;;;;;;;;3.4;62.22168;102403;;;;-82
2022/03/10 02:45:21;;;;;;;;;;;;;;;3.35;62.40039;102406.9;;;;-80
2022/03/10 02:50:23;;;;;;;;;;;;;;;3.31;62.64648;102401.6;;;;-83
2022/03/10 02:55:30;;;;;;;;;;;;;;;3.24;62.57031;102410;;;;-83
2022/03/10 03:00:27;;;;;;;;;;;;;;;3.19;62.78027;102412.5;;;;-81
2022/03/10 03:05:24;;;;;;;;;;;;;;;3.15;62.78711;102414.2;;;;-81
2022/03/10 03:06:39;;;;;;;23;9.4;;;;;;;;;;;;;-81
2022/03/10 03:10:36;;;;;;;;;;;;;;;3.09;62.94141;102414.6;;;;-82
2022/03/10 03:15:25;;;;;;;;;;;;;;;3.05;63.05664;102419.8;;;;-80
2022/03/10 03:20:24;;;;;;;;;;;;;;;3.03;63.03223;102419.4;;;;-81
2022/03/10 03:25:21;;;;;;;;;;;;;;;2.98;63.27539;102424.9;;;;-82
2022/03/10 03:30:27;;;;;;;;;;;;;;;2.95;63.29395;102425.4;;;;-82
2022/03/10 03:35:21;;;;;;;;;;;;;;;2.93;63.48535;102427.2;;;;-81
2022/03/10 03:36:37;;;;;;;21.5;9;;;;;;;;;;;;;-81
2022/03/10 03:40:27;;;;;;;;;;;;;;;2.89;63.5127;102430.1;;;;-82
2022/03/10 03:45:28;;;;;;;;;;;;;;;2.86;63.43262;102440.8;;;;-80
2022/03/10 03:50:29;;;;;;;;;;;;;;;2.84;63.57031;102446.3;;;;-81
2022/03/10 03:55:23;;;;;;;;;;;;;;;2.81;63.49023;102449.3;;;;-82
2022/03/10 04:00:24;;;;;;;;;;;;;;;2.77;63.64844;102457.8;;;;-82
2022/03/10 04:05:23;;;;;;;;;;;;;;;2.74;63.78613;102454.2;;;;-80
2022/03/10 04:06:26;;;;;;;23.6;10.1;;;;;;;;;;;;;-81
2022/03/10 04:10:27;;;;;;;;;;;;;;;2.72;63.84863;102449.3;;;;-80
2022/03/10 04:15:31;;;;;;;;;;;;;;;2.7;64.05273;102445.9;;;;-82
2022/03/10 04:20:26;;;;;;;;;;;;;;;2.66;64.18848;102451;;;;-81
2022/03/10 04:25:25;;;;;;;;;;;;;;;2.62;64.3457;102454.1;;;;-83
2022/03/10 04:30:23;;;;;;;;;;;;;;;2.57;64.4375;102451.3;;;;-81
2022/03/10 04:35:25;;;;;;;;;;;;;;;2.54;64.61816;102449.4;;;;-82
2022/03/10 04:36:22;;;;;;;23.4;9.8;;;;;;;;;;;;;-82
2022/03/10 04:40:26;;;;;;;;;;;;;;;2.53;64.78027;102451.7;;;;-81
2022/03/10 04:45:22;;;;;;;;;;;;;;;2.52;64.71289;102454.7;;;;-81
2022/03/10 04:50:24;;;;;;;;;;;;;;;2.49;64.64258;102451.1;;;;-82
2022/03/10 04:55:23;;;;;;;;;;;;;;;2.44;64.74414;102450.8;;;;-82
2022/03/10 05:00:25;;;;;;;;;;;;;;;2.39;64.84766;102451.4;;;;-81
2022/03/10 05:05:23;;;;;;;;;;;;;;;2.37;64.70117;102454;;;;-82
2022/03/10 05:06:29;;;;;;;23.3;8.8;;;;;;;;;;;;;-81
2022/03/10 05:10:23;;;;;;;;;;;;;;;2.33;64.73926;102453.1;;;;-82
2022/03/10 05:15:22;;;;;;;;;;;;;;;2.28;64.72168;102454.6;;;;-81
2022/03/10 05:20:25;;;;;;;;;;;;;;;2.24;64.8457;102454.2;;;;-81
2022/03/10 05:25:42;;;;;;;;;;;;;;;2.22;64.92871;102460.2;;;;-80
2022/03/10 05:30:35;;;;;;;;;;;;;;;2.18;64.97949;102456.4;;;;-82
2022/03/10 05:35:31;;;;;;;;;;;;;;;2.15;65.12598;102461.9;;;;-82
2022/03/10 05:36:29;;;;;;;24.4;10.2;;;;;;;;;;;;;-81
2022/03/10 05:40:23;;;;;;;;;;;;;;;2.13;64.96973;102458.1;;;;-82
2022/03/10 05:45:25;;;;;;;;;;;;;;;2.09;65.23633;102448.3;;;;-81
2022/03/10 05:50:22;;;;;;;;;;;;;;;2.07;65.16797;102456.1;;;;-83
2022/03/10 05:55:23;;;;;;;;;;;;;;;2.07;65.49512;102460.6;;;;-83
2022/03/10 06:00:22;;;;;;;;;;;;;;;2.06;65.43945;102455.8;;;;-82
2022/03/10 06:05:24;;;;;;;;;;;;;;;2.04;65.48926;102457.2;;;;-82
2022/03/10 06:06:20;;;;;;;24.5;9.7;;;;;;;;;;;;;-83
2022/03/10 06:10:26;;;;;;;;;;;;;;;2.04;65.42578;102460.1;;;;-82
2022/03/10 06:15:27;;;;;;;;;;;;;;;2.03;65.56543;102455.7;;;;-82
2022/03/10 06:20:30;;;;;;;;;;;;;;;2.05;65.71973;102458.5;;;;-81
2022/03/10 06:25:30;;;;;;;;;;;;;;;2.05;65.53711;102459.7;;;;-83
2022/03/10 06:30:26;;;;;;;;;;;;;;;2.05;65.5918;102460;;;;-83
2022/03/10 06:35:25;;;;;;;;;;;;;;;2.05;65.66504;102461.9;;;;-82
2022/03/10 06:36:29;;;;;;;22.8;8.6;;;;;;;;;;;;;-81
2022/03/10 06:40:22;;;;;;;;;;;;;;;2.08;65.50781;102464.9;;;;-82
2022/03/10 06:45:25;;;;;;;;;;;;;;;2.13;65.5918;102465.6;;;;-81
2022/03/10 06:50:27;;;;;;;;;;;;;;;2.19;65.5459;102469.3;;;;-80
2022/03/10 06:55:33;;;;;;;;;;;;;;;2.28;65.53809;102474.3;;;;-82
2022/03/10 07:00:21;;;;;;;;;;;;;;;2.37;65.47559;102482.9;;;;-82
2022/03/10 07:05:24;;;;;;;;;;;;;;;2.48;65.26367;102481.3;;;;-82
2022/03/10 07:06:21;;;;;;;24.6;9.9;;;;;;;;;;;;;-82
2022/03/10 07:10:22;;;;;;;;;;;;;;;2.57;65.43164;102478;;;;-81
2022/03/10 07:20:23;;;;;;;;;;;;;;;2.81;65.62988;102486.9;;;;-82
2022/03/10 07:25:27;;;;;;;;;;;;;;;2.95;65.68457;102489.4;;;;-79
2022/03/10 07:36:33;;;;;;;28.3;10;;;;;;;;;;;;;-78
2022/03/10 07:38:28;;;;;;;;;;;;;;;3.39;64.81055;102485.7;;;;-76
2022/03/10 07:43:27;;;;;;;;;;;;;;;3.57;65.15625;102490.5;;;;-78
2022/03/10 07:53:24;;;;;;;;;;;;;;;4.01;65.04785;102494.5;;;;-78
2022/03/10 07:58:31;;;;;;;;;;;;;;;4.22;64.64063;102488.2;;;;-79
2022/03/10 08:03:32;;;;;;;;;;;;;;;4.49;64.49609;102485.9;;;;-79
2022/03/10 08:06:22;;;;;;;23.2;10.6;;;;;;;;;;;;;-77
2022/03/10 08:08:39;;;;;;;;;;;;;;;4.79;64.07031;102487.6;;;;-78
2022/03/10 08:13:26;;;;;;;;;;;;;;;5.16;64.35547;102488.1;;;;-78
2022/03/10 08:18:29;;;;;;;;;;;;;;;5.59;64.00098;102482;;;;-77
2022/03/10 08:23:26;;;;;;;;;;;;;;;6.07;63.47852;102475;;;;-78
2022/03/10 08:28:40;;;;;;;;;;;;;;;6.48;62.63574;102465;;;;-78
2022/03/10 08:33:30;;;;;;;;;;;;;;;6.93;62.49023;102464.7;;;;-78
2022/03/10 08:36:39;;;;;;;27.2;11.7;;;;;;;;;;;;;-77
2022/03/10 08:38:43;;;;;;;;;;;;;;;7.36;61.70313;102464;;;;-79
2022/03/10 08:43:30;;;;;;;;;;;;;;;7.79;60.48145;102459.4;;;;-78
2022/03/10 08:48:26;;;;;;;;;;;;;;;8.14;59.72168;102447.5;;;;-78
2022/03/10 08:53:33;;;;;;;;;;;;;;;8.6;58.66504;102447.3;;;;-77
2022/03/10 08:58:37;;;;;;;;;;;;;;;8.97;57.11816;102441.5;;;;-77
2022/03/10 09:03:26;;;;;;;;;;;;;;;9.27;57.5791;102446.3;;;;-81
2022/03/10 09:06:21;;;;;;;30.1;13.3;;;;;;;;;;;;;-81
2022/03/10 09:13:27;;;;;;;;;;;;;;;10.05;56.125;102448.9;;;;-80
2022/03/10 09:22:39;;;;;;;;;;;;;;;10.59;54.63379;102439.5;;;;-82
2022/03/10 09:27:38;;;;;;;;;;;;;;;10.84;54.3291;102431.6;;;;-81
2022/03/10 09:32:48;;;;;;;;;;;;;;;11.04;53.5293;102435.2;;;;-80
2022/03/10 09:36:19;;;;;;;28.9;13.6;;;;;;;;;;;;;-82
2022/03/10 09:37:46;;;;;;;;;;;;;;;11.34;52.61523;102433.9;;;;-82
2022/03/10 09:42:37;;;;;;;;;;;;;;;11.48;51.69336;102428.6;;;;-82
2022/03/10 09:47:47;;;;;;;;;;;;;;;11.65;51.08789;102421.3;;;;-80
2022/03/10 10:06:42;;;;;;;;;;;;;;;12.09;50.60156;102391.7;;;;-85
2022/03/10 10:07:27;;;;;;;31.7;14.6;;;;;;;;;;;;;-85
2022/03/10 10:21:03;;;;;;;;;;;;;;;12.76;49.97266;102398.3;;;;-81
2022/03/10 10:26:04;;;;;;;;;;;;;;;12.87;49.47949;102395.7;;;;-79
2022/03/10 10:35:56;;;;;;;;;;;;;;;13.19;49.75195;102391;;;;-82
2022/03/10 10:36:46;;;;;;;29.5;14.5;;;;;;;;;;;;;-81
2022/03/10 10:41:09;;;;;;;;;;;;;;;13.28;49.7041;102392.3;;;;-82
2022/03/10 10:46:08;;;;;;;;;;;;;;;13.5;49.50488;102384.3;;;;-82
2022/03/10 10:51:06;;;;;;;;;;;;;;;13.64;50.66895;102375.8;;;;-80
2022/03/10 10:56:05;;;;;;;;;;;;;;;13.79;49.75195;102377.5;;;;-80
2022/03/10 11:00:57;;;;;;;;;;;;;;;13.95;50.11816;102372;;;;-81
2022/03/10 11:06:28;;;;;;;;;;;;;;;14.13;50.73438;102364.6;;;;-84
2022/03/10 11:06:58;;;;;;;30.3;15.2;;;;;;;;;;;;;-84
2022/03/10 11:11:25;;;;;;;;;;;;;;;14.31;51.09473;102362;;;;-83
2022/03/10 11:16:25;;;;;;;;;;;;;;;14.52;51.8623;102368.5;;;;-85
2022/03/10 11:21:27;;;;;;;;;;;;;;;;;;;;;
2022/03/10 11:26:23;;;;;;;;;;;;;;;14.8;53.5166;102360.9;;;;-85
2022/03/10 11:31:17;;;;;;;;;;;;;;;15.05;53.28906;102353.5;;;;-86
2022/03/10 11:36:31;;;;;;;;;;;;;;;15.21;53.30859;102354.2;;;;-85
2022/03/10 11:36:52;;;;;;;26.4;13.7;;;;;;;;;;;;;-85
2022/03/10 11:41:19;;;;;;;;;;;;;;;15.36;54.84766;102344.2;;;;-84
2022/03/10 11:46:36;;;;;;;;;;;;;;;15.59;53.84961;102341.2;;;;-85
2022/03/10 11:51:29;;;;;;;;;;;;;;;15.72;52.2627;102332.6;;;;-85
2022/03/10 11:56:22;;;;;;;;;;;;;;;15.75;53.56543;102332.1;;;;-86
2022/03/10 12:01:25;;;;;;;;;;;;;;;15.88;54.47266;102325.5;;;;-88
2022/03/10 12:06:17;;;;;;;;;;;;;;;16.02;52.875;102321.3;;;;-86
2022/03/10 12:07:00;;;;;;;25.9;12.7;;;;;;;;;;;;;-86
2022/03/10 12:11:20;;;;;;;;;;;;;;;16.08;54.24902;102312.1;;;;-87
2022/03/10 12:16:32;;;;;;;;;;;;;;;16.17;53.78516;102304.2;;;;-86
2022/03/10 12:20:46;;;;;;;;;;;;;;;16.32;56.02832;102300.8;;;;-86
2022/03/10 12:25:46;;;;;;;;;;;;;;;16.4;55.86914;102296.1;;;;-86
2022/03/10 12:50:27;;;;;;;;;;;;;;;16.89;57.35645;102269.1;;;;-85
2022/03/10 12:55:59;;;;;;;;;;;;;;;;;;;;;
2022/03/10 13:00:34;;;;;;;;;;;;;;;17.11;58.1875;102252.8;;;;-83
2022/03/10 13:05:31;;;;;;;;;;;;;;;17.15;56.31543;102248.8;;;;-83
2022/03/10 13:06:38;;;;;;;24;13.3;;;;;;;;;;;;;-83
2022/03/10 13:10:30;;;;;;;;;;;;;;;17.19;55.40332;102243;;;;-82
2022/03/10 13:15:29;;;;;;;;;;;;;;;17.21;57.05762;102234.4;;;;-82
2022/03/10 13:20:25;;;;;;;;;;;;;;;17.26;54.98242;102228.9;;;;-82
2022/03/10 13:25:23;;;;;;;;;;;;;;;17.29;54.19434;102221.6;;;;-80
2022/03/10 13:30:29;;;;;;;;;;;;;;;17.24;54.86719;102224.3;;;;-81
2022/03/10 13:35:26;;;;;;;;;;;;;;;17.26;55.33398;102215.3;;;;-82
2022/03/10 13:36:32;;;;;;;25.4;13.3;;;;;;;;;;;;;-85
2022/03/10 13:41:41;;;;;;;;;;;;;;;17.22;54.49023;102208.9;;;;-83
2022/03/10 13:46:40;;;;;;;;;;;;;;;17.23;54.36719;102196.3;;;;-82
2022/03/10 13:51:38;;;;;;;;;;;;;;;17.23;53.86816;102195.3;;;;-83
2022/03/10 13:56:38;;;;;;;;;;;;;;;17.25;52.49023;102191.1;;;;-80
2022/03/10 14:01:48;;;;;;;;;;;;;;;17.32;53.40527;102188;;;;-82
2022/03/10 14:06:45;;;;;;;;;;;;;;;17.35;53.52148;102186.5;;;;-82
2022/03/10 14:07:15;;;;;;;30.2;13;;;;;;;;;;;;;-82
2022/03/10 14:11:37;;;;;;;;;;;;;;;17.36;50.42871;102185.1;;;;-83
2022/03/10 14:16:32;;;;;;;;;;;;;;;17.28;52.51563;102180.8;;;;-83
2022/03/10 14:21:38;;;;;;;;;;;;;;;17.32;53.74414;102177.5;;;;-82
2022/03/10 14:26:41;;;;;;;;;;;;;;;17.29;52.01953;102175.4;;;;-81
2022/03/10 14:31:39;;;;;;;;;;;;;;;17.27;52.85449;102171.7;;;;-83
2022/03/10 14:36:34;;;;;;;;;;;;;;;17.28;52.1875;102168.9;;;;-83
2022/03/10 14:36:52;;;;;;;23.3;11.2;;;;;;;;;;;;;-83
2022/03/10 14:41:48;;;;;;;;;;;;;;;17.28;51.92676;102168.8;;;;-84
2022/03/10 14:46:41;;;;;;;;;;;;;;;17.24;52.10352;102167;;;;-84
2022/03/10 14:51:32;;;;;;;;;;;;;;;17.13;51.95508;102158.3;;;;-83
2022/03/10 14:56:51;;;;;;;;;;;;;;;17.21;52.45117;102149;;;;-81
2022/03/10 15:06:39;;;;;;;;;;;;;;;17.15;51.68652;102147.7;;;;-84
2022/03/10 15:07:03;;;;;;;23.1;11.5;;;;;;;;;;;;;-84
2022/03/10 15:16:45;;;;;;;;;;;;;;;17.22;45.92188;102138.5;;;;-82
2022/03/10 15:21:30;;;;;;;;;;;;;;;17.25;45.99219;102131.8;;;;-84
2022/03/10 15:28:19;;;;;;;;;;;;;;;17.11;47.71289;102122;;;;-82
2022/03/10 15:34:56;;;;;;;;;;;;;;;16.87;48.1748;102115.3;;;;-83
2022/03/10 15:36:48;;;;;;;22.6;11.4;;;;;;;;;;;;;-82
2022/03/10 15:45:01;;;;;;;;;;;;;;;16.59;49.71777;102106.5;;;;-82
2022/03/10 15:53:14;;;;;;;;;;;;;;;16.36;50.48438;102099.6;;;;-84
2022/03/10 15:58:39;;;;;;;;;;;;;;;16.23;51.47656;102094.1;;;;-85
2022/03/10 16:06:42;;;;;;;;;;;;;;;16.07;51.89746;102082;;;;-84
2022/03/10 16:07:27;;;;;;;23.2;12;;;;;;;;;;;;;-84
2022/03/10 16:12:01;;;;;;;;;;;;;;;15.93;52.90918;102074;;;;-85
2022/03/10 16:16:48;;;;;;;;;;;;;;;15.77;51.63672;102076.6;;;;-81
2022/03/10 16:21:41;;;;;;;;;;;;;;;15.62;52.80469;102070.4;;;;-83
2022/03/10 16:26:41;;;;;;;;;;;;;;;15.45;52.6709;102069.7;;;;-79
2022/03/10 16:31:39;;;;;;;;;;;;;;;15.29;52.50488;102072.5;;;;-81
2022/03/10 16:36:58;;;;;;;;;;;;;;;15.16;53.06445;102070.8;;;;-81
2022/03/10 16:37:07;;;;;;;23.9;12.4;;;;;;;;;;;;;-81
2022/03/10 16:41:41;;;;;;;;;;;;;;;15.02;53.00293;102067.4;;;;-82
2022/03/10 16:46:49;;;;;;;;;;;;;;;14.89;53.37109;102062;;;;-83
2022/03/10 16:51:38;;;;;;;;;;;;;;;14.71;52.83105;102064.3;;;;-81
2022/03/10 16:56:42;;;;;;;;;;;;;;;14.48;53.20898;102069.1;;;;-82
2022/03/10 17:14:19;;;;;;;;;;;;;;;13.67;52.81738;102065.3;;;;-86
2022/03/10 17:19:22;;;;;;;;;;;;;;;13.45;52.91504;102064.3;;;;-87
2022/03/10 17:24:30;;;;;;;;;;;;;;;13.25;53.26074;102073;;;;-86
2022/03/10 17:29:40;;;;;;;;;;;;;;;;;;;;;
2022/03/10 17:34:20;;;;;;;;;;;;;;;12.83;53.84961;102072.9;;;;-86
2022/03/10 17:37:01;;;;;;;23;11;;;;;;;;;;;;;-85
2022/03/10 17:39:45;;;;;;;;;;;;;;;12.64;54.21875;102071.8;;;;-86
2022/03/10 17:44:26;;;;;;;;;;;;;;;12.45;54.48535;102071.3;;;;-86
2022/03/10 17:49:25;;;;;;;;;;;;;;;12.26;54.87598;102073.5;;;;-85
2022/03/10 17:54:30;;;;;;;;;;;;;;;12.06;55.56738;102070.8;;;;-85
2022/03/10 17:59:29;;;;;;;;;;;;;;;11.86;55.71973;102069.9;;;;-87
2022/03/10 18:07:05;;;;;;;23.7;11;;;;;;;;;;;;;-85
2022/03/10 18:09:21;;;;;;;;;;;;;;;11.49;56.03125;102063.5;;;;-84
2022/03/10 18:14:23;;;;;;;;;;;;;;;11.31;56.7666;102062;;;;-82
2022/03/10 18:19:27;;;;;;;;;;;;;;;11.15;56.80273;102064.4;;;;-85
2022/03/10 18:24:55;;;;;;;;;;;;;;;;;;;;;
2022/03/10 18:32:45;;;;;;;;;;;;;;;10.75;57.0625;102057.8;;;;-83
2022/03/10 18:37:03;;;;;;;20.7;10.2;;;;;;;;;;;;;-83
2022/03/10 18:37:38;;;;;;;;;;;;;;;10.61;57.34375;102058.8;;;;-81
2022/03/10 18:42:20;;;;;;;;;;;;;;;10.47;57.64941;102059.6;;;;-83
2022/03/10 18:47:25;;;;;;;;;;;;;;;10.34;57.4082;102057.1;;;;-81
2022/03/10 18:52:21;;;;;;;;;;;;;;;10.21;57.36914;102057.7;;;;-82
2022/03/10 18:57:39;;;;;;;;;;;;;;;10.07;57.68555;102056.2;;;;-81
2022/03/10 19:02:26;;;;;;;;;;;;;;;9.94;57.4668;102050.1;;;;-81
2022/03/10 19:06:51;;;;;;;22.5;10.6;;;;;;;;;;;;;-82
2022/03/10 19:07:21;;;;;;;;;;;;;;;9.84;57.84277;102049.1;;;;-81
2022/03/10 19:12:19;;;;;;;;;;;;;;;9.73;57.11719;102051.6;;;;-83
2022/03/10 19:15:26;;;;;;;;;;;;;;;9.68;57.82227;102052.9;;;;-79
2022/03/10 19:20:25;;;;;;;;;;;;;;;9.57;57.77539;102050;;;;-77
2022/03/10 19:25:29;;;;;;;;;;;;;;;9.46;57.83789;102049.2;;;;-78
2022/03/10 19:30:23;;;;;;;;;;;;;;;9.38;58.03809;102046;;;;-78
2022/03/10 19:35:41;;;;;;;;;;;;;;;9.27;57.35547;102048.9;;;;-77
2022/03/10 19:37:03;;;;;;;21.5;10.3;;;;;;;;;;;;;-76
2022/03/10 19:40:20;;;;;;;;;;;;;;;9.17;58.27637;102051.5;;;;-77
2022/03/10 19:45:28;;;;;;;;;;;;;;;9.09;58.44336;102051.5;;;;-83
2022/03/10 19:50:30;;;;;;;;;;;;;;;8.98;57.95215;102045.6;;;;-82
2022/03/10 19:55:22;;;;;;;;;;;;;;;8.9;58.0293;102047.2;;;;-82
2022/03/10 20:00:29;;;;;;;;;;;;;;;8.81;58.0498;102041.2;;;;-84
2022/03/10 20:05:19;;;;;;;;;;;;;;;8.72;58.19336;102037.1;;;;-84
2022/03/10 20:06:58;;;;;;;21.6;10.3;;;;;;;;;;;;;-82
2022/03/10 20:10:24;;;;;;;;;;;;;;;8.63;57.53906;102039.4;;;;-83
2022/03/10 20:15:20;;;;;;;;;;;;;;;8.56;57.23047;102033.7;;;;-82
2022/03/10 20:20:24;;;;;;;;;;;;;;;8.5;57.67773;102036.7;;;;-83
2022/03/10 20:25:23;;;;;;;;;;;;;;;8.44;57.64648;102036;;;;-82
2022/03/10 20:30:20;;;;;;;;;;;;;;;8.36;57.12598;102035.6;;;;-82
2022/03/10 20:35:23;;;;;;;;;;;;;;;8.28;57.36035;102030.4;;;;-82
2022/03/10 20:36:58;;;;;;;20.2;8;;;;;;;;;;;;;-83
2022/03/10 20:40:22;;;;;;;;;;;;;;;8.17;56.91211;102026.2;;;;-84
2022/03/10 20:45:24;;;;;;;;;;;;;;;8.08;57.08887;102027.2;;;;-82
2022/03/10 20:50:18;;;;;;;;;;;;;;;7.99;57.28711;102022.1;;;;-83
2022/03/10 20:55:18;;;;;;;;;;;;;;;7.91;57.11133;102015.9;;;;-82
2022/03/10 21:00:22;;;;;;;;;;;;;;;7.85;57.05762;102013.6;;;;-83
2022/03/10 21:05:22;;;;;;;;;;;;;;;7.8;57.2959;102016.8;;;;-82
2022/03/10 21:06:59;;;;;;;16.3;7.5;;;;;;;;;;;;;-82
2022/03/10 21:10:18;;;;;;;;;;;;;;;7.75;57.27832;102011.6;;;;-83
2022/03/10 21:15:22;;;;;;;;;;;;;;;7.7;57.13965;102008.7;;;;-83
2022/03/10 21:20:17;;;;;;;;;;;;;;;7.63;57.51563;102005.1;;;;-80
2022/03/10 21:25:18;;;;;;;;;;;;;;;7.56;57.60742;102000.7;;;;-82
2022/03/10 21:30:19;;;;;;;;;;;;;;;7.5;57.76465;102009.2;;;;-81
2022/03/10 21:35:17;;;;;;;;;;;;;;;7.47;58.3252;102007.4;;;;-79
2022/03/10 21:36:59;;;;;;;15.1;6.9;;;;;;;;;;;;;-82
2022/03/10 21:40:20;;;;;;;;;;;;;;;7.45;57.41602;102002.4;;;;-82
2022/03/10 21:45:21;;;;;;;;;;;;;;;7.45;57.59082;101996;;;;-81
2022/03/10 21:50:20;;;;;;;;;;;;;;;7.44;57.2041;101993.4;;;;-81
2022/03/10 21:55:22;;;;;;;;;;;;;;;7.4;57.29785;101986.9;;;;-82
2022/03/10 22:00:20;;;;;;;;;;;;;;;7.39;57.17578;101988.2;;;;-80
2022/03/10 22:05:22;;;;;;;;;;;;;;;7.38;56.78613;101977.6;;;;-81
2022/03/10 22:06:54;;;;;;;13.9;6.1;;;;;;;;;;;;;-80
2022/03/10 22:10:21;;;;;;;;;;;;;;;7.34;56.74902;101973;;;;-81
2022/03/10 22:15:18;;;;;;;;;;;;;;;7.33;56.76953;101969.9;;;;-82
2022/03/10 22:22:25;;;;;;;;;;;;;;;7.28;56.80762;101972.3;;;;-83
2022/03/10 22:27:25;;;;;;;;;;;;;;;7.26;56.71582;101964.8;;;;-80
2022/03/10 22:32:25;;;;;;;;;;;;;;;7.21;56.35742;101963.7;;;;-79
2022/03/10 22:36:55;;;;;;;15.5;5.9;;;;;;;;;;;;;-80
2022/03/10 22:40:46;;;;;;;;;;;;;;;7.13;56.67773;101962.3;;;;-81
2022/03/10 22:45:54;;;;;;;;;;;;;;;7.1;56.55078;101954.7;;;;-81
2022/03/10 22:55:48;;;;;;;;;;;;;;;7.03;57.27051;101953.6;;;;-82
2022/03/10 23:00:52;;;;;;;;;;;;;;;6.98;57;101954.2;;;;-80
2022/03/10 23:10:46;;;;;;;;;;;;;;;6.86;57.49316;101946.4;;;;-81
2022/03/10 23:15:46;;;;;;;;;;;;;;;6.83;57.00195;101942.5;;;;-81
2022/03/10 23:20:48;;;;;;;;;;;;;;;6.79;57.40625;101936.9;;;;-82
2022/03/10 23:25:50;;;;;;;;;;;;;;;6.72;57.23047;101932.1;;;;-81
2022/03/10 23:30:48;;;;;;;;;;;;;;;6.65;57.0459;101924.8;;;;-81
2022/03/10 23:35:46;;;;;;;;;;;;;;;6.62;57.68066;101922.1;;;;-80
2022/03/10 23:37:03;;;;;;;11.3;5.3;;;;;;;;;;;;;-83
2022/03/10 23:40:48;;;;;;;;;;;;;;;6.56;57.06641;101921.9;;;;-81
2022/03/10 23:45:54;;;;;;;;;;;;;;;6.53;58.12012;101920.6;;;;-79
2022/03/10 23:50:46;;;;;;;;;;;;;;;6.49;58.02832;101917.1;;;;-82
2022/03/10 23:55:46;;;;;;;;;;;;;;;6.45;58.06641;101914.8;;;;-81
